Latest Weather Observations for Coober Pedy Airport

IDS60801

Issued at 11:31 pm CST Friday 27 May 2016 (issued every 30 minutes, with the page automatically refreshed every 10 minutes)

About weather observations | Map of weather stations | Latest weather observations for SA | Other Formats
Station Details ID: 016090 Name: COOBER PEDY AIRPORT Lat: -29.03 Lon: 134.72 Height: 225.0 m
Data from the previous 72 hours. | See also: Recent months at Coober Pedy Airport
Date/Time
CST
Temp
°C
App
Temp
°C
Dew
Point
Rel
Hum
%
Delta-T
°C
Wind Press
QNH
hPa
Press
MSL
hPa
Rain
since 9 am
mm
Dir
 
Spd
km/h
Gust
km/h
Spd
kts
Gust
kts
27/11:30pm 14.2 9.3 8.6 69 2.8 SSW 24 30 13 16 1020.2 1019.9 0.0
27/11:00pm 14.0 8.6 8.2 68 2.9 SSW 26 32 14 17 1020.0 1019.7 0.0
27/10:30pm 13.9 9.6 7.2 64 3.3 SSW 19 20 10 11 1019.8 1019.5 0.0
27/10:00pm 13.4 9.1 5.1 57 3.9 SW 17 20 9 11 1019.7 1019.4 0.0
27/09:30pm 13.9 9.1 4.8 54 4.3 SW 19 22 10 12 1019.5 1019.2 0.0
27/09:00pm 13.9 9.5 5.0 55 4.2 W 17 20 9 11 1019.4 1019.1 0.0
27/08:30pm 14.0 10.0 5.1 55 4.2 W 15 17 8 9 1019.1 1018.8 0.0
27/08:00pm 13.8 10.2 4.9 55 4.2 WSW 13 15 7 8 1018.9 1018.6 0.0
27/07:30pm 14.5 10.4 4.5 51 4.7 WSW 15 17 8 9 1018.7 1018.3 0.0
27/07:00pm 15.5 10.6 3.9 46 5.4 WSW 19 20 10 11 1018.7 1018.3 0.0
27/06:30pm 16.4 10.4 3.5 42 6.0 WSW 24 28 13 15 1018.4 1018.0 0.0
27/06:00pm 17.2 10.4 3.1 39 6.5 WSW 28 35 15 19 1018.1 1017.7 0.0
27/05:30pm 17.8 10.8 4.0 40 6.6 WSW 30 43 16 23 1017.9 1017.5 0.0
27/05:00pm 18.6 11.2 4.8 40 6.7 WSW 33 44 18 24 1017.6 1017.2 0.0
27/04:30pm 18.9 11.0 4.3 38 7.0 WSW 35 48 19 26 1017.5 1017.1 0.0
27/04:00pm 19.1 10.9 4.5 38 7.1 WSW 37 48 20 26 1017.2 1016.9 0.0
27/03:30pm 18.9 11.2 5.4 41 6.6 WSW 35 46 19 25 1017.4 1017.0 0.0
27/03:00pm 18.8 11.5 5.3 41 6.6 WSW 33 43 18 23 1017.4 1017.0 0.0
27/02:30pm 18.9 11.9 6.1 43 6.4 SW 32 39 17 21 1017.6 1017.2 0.0
27/02:00pm 18.0 10.8 5.9 45 6.0 WSW 33 43 18 23 1018.2 1017.8 0.0
27/01:30pm 18.6 11.5 6.4 45 6.1 WSW 33 41 18 22 1018.2 1017.8 0.0
27/01:00pm 17.6 10.7 6.5 48 5.5 SW 32 39 17 21 1018.7 1018.3 0.0
27/12:30pm 17.4 10.4 6.0 47 5.6 SW 32 43 17 23 1018.9 1018.6 0.0
27/12:00pm 16.7 10.1 7.6 55 4.6 SW 32 39 17 21 1019.4 1019.1 0.0
27/11:30am 16.4 9.5 7.3 55 4.6 SW 33 41 18 22 1019.6 1019.3 0.0
27/11:00am 16.1 9.6 8.1 59 4.1 SW 32 39 17 21 1020.0 1019.7 0.0
27/10:30am 15.8 9.3 8.3 61 3.8 SW 32 39 17 21 1020.1 1019.8 0.0
27/10:00am 15.2 9.1 8.2 63 3.6 SW 30 37 16 20 1020.1 1019.8 0.0
27/09:30am 14.5 9.1 7.8 64 3.4 WSW 26 33 14 18 1019.9 1019.6 0.0
27/09:00am 13.4 8.3 7.6 68 2.9 W 24 28 13 15 1019.7 1019.4 0.0
27/08:30am 12.3 8.2 7.8 74 2.2 W 19 24 10 13 1019.3 1019.0 0.0
27/08:00am 11.7 7.5 7.6 76 2.0 W 19 22 10 12 1019.1 1018.8 0.0
27/07:30am 11.4 7.6 7.7 78 1.8 W 17 20 9 11 1018.6 1018.2 0.0
27/07:00am 11.4 7.3 7.9 79 1.7 WSW 19 20 10 11 1018.6 1018.2 0.0
27/06:30am 11.7 8.0 8.0 78 1.8 WSW 17 19 9 10 1018.2 1017.8 0.0
27/06:00am 12.5 8.5 8.2 75 2.1 WSW 19 22 10 12 1017.9 1017.5 0.0
27/05:30am 13.4 8.9 8.5 72 2.5 SW 22 28 12 15 1017.2 1016.9 0.0
27/05:00am 13.7 9.0 9.4 75 2.2 SW 24 33 13 18 1017.2 1016.9 0.0
27/04:30am 13.7 9.7 10.5 81 1.7 SW 22 30 12 16 1017.2 1016.9 0.0
27/04:00am 13.7 9.8 10.9 83 1.5 WSW 22 28 12 15 1016.9 1016.6 0.0
27/03:30am 13.7 10.3 11.2 85 1.3 WSW 20 24 11 13 1016.8 1016.5 0.0
27/03:00am 14.1 10.7 11.3 83 1.5 WSW 20 24 11 13 1016.7 1016.4 0.0
27/02:30am 14.0 11.6 11.3 84 1.4 W 15 19 8 10 1016.9 1016.6 0.0
27/02:00am 13.9 11.8 11.2 84 1.4 W 13 17 7 9 1016.9 1016.6 0.0
27/01:30am 13.8 11.7 11.0 83 1.5 WSW 13 17 7 9 1016.7 1016.4 0.0
27/01:00am 14.2 11.7 11.2 82 1.6 WSW 15 19 8 10 1016.6 1016.3 0.0
27/12:30am 14.1 11.5 10.7 80 1.8 WSW 15 19 8 10 1016.7 1016.4 0.0
27/12:00am 14.1 10.9 10.1 77 2.1 W 17 20 9 11 1016.9 1016.6 0.0
 
Date/Time
CST
Temp
°C
App
Temp
°C
Dew
Point
Rel
Hum
%
Delta-T
°C
Wind Press
QNH
hPa
Press
MSL
hPa
Rain
since 9 am
mm
Dir
 
Spd
km/h
Gust
km/h
Spd
kts
Gust
kts
26/11:30pm 14.0 11.1 9.8 76 2.2 WSW 15 17 8 9 1016.7 1016.4 0.0
26/11:00pm 14.1 11.1 9.3 73 2.5 WSW 15 17 8 9 1016.9 1016.6 0.0
26/10:30pm 14.4 11.8 9.2 71 2.7 WSW 13 17 7 9 1016.9 1016.6 0.0
26/10:00pm 14.2 11.7 8.4 68 2.9 WSW 11 13 6 7 1016.6 1016.3 0.0
26/09:30pm 14.2 12.1 8.4 68 2.9 WSW 9 11 5 6 1016.2 1015.9 0.0
26/09:00pm 15.0 12.1 8.0 63 3.5 SW 13 15 7 8 1016.3 1016.0 0.0
26/08:30pm 15.3 12.3 7.8 61 3.8 SW 13 15 7 8 1016.0 1015.7 0.0
26/08:00pm 16.0 13.0 7.5 57 4.3 SW 13 15 7 8 1015.7 1015.4 0.0
26/07:30pm 16.8 12.8 6.6 51 5.1 SW 17 19 9 10 1015.7 1015.4 0.0
26/07:00pm 16.9 13.3 6.7 51 5.1 SW 15 22 8 12 1015.0 1014.7 0.0
26/06:30pm 17.7 13.0 5.9 46 5.8 SW 20 28 11 15 1014.7 1014.3 0.0
26/06:00pm 17.8 14.8 7.8 52 5.1 SW 13 15 7 8 1014.3 1013.9 0.0
26/05:30pm 18.1 14.3 7.5 50 5.4 SW 17 20 9 11 1014.2 1013.8 0.0
26/05:00pm 18.3 13.6 7.7 50 5.4 SW 22 28 12 15 1014.2 1013.8 0.0
26/04:30pm 18.6 15.2 7.7 49 5.6 SW 15 20 8 11 1013.7 1013.3 0.0
26/04:00pm 18.9 14.2 7.7 48 5.8 WSW 22 30 12 16 1013.2 1012.8 0.0
26/03:30pm 19.1 14.3 7.5 47 6.0 SW 22 30 12 16 1013.2 1012.8 0.0
26/03:00pm 19.3 15.0 8.0 48 5.9 WSW 20 28 11 15 1013.1 1012.7 0.0
26/02:30pm 18.9 14.4 8.6 51 5.4 WSW 22 30 12 16 1013.1 1012.7 0.0
26/02:00pm 18.9 15.4 8.6 51 5.4 SW 17 26 9 14 1012.9 1012.5 0.0
26/01:30pm 18.7 14.7 8.9 53 5.2 WSW 20 32 11 17 1013.5 1013.1 0.0
26/01:00pm 19.2 15.3 8.5 50 5.6 SW 19 26 10 14 1013.6 1013.2 0.0
26/12:30pm 18.5 15.9 9.3 55 4.9 WSW 13 22 7 12 1013.5 1013.1 0.0
26/12:00pm 17.3 14.4 9.5 60 4.1 SW 15 24 8 13 1013.8 1013.4 0.0
26/11:30am 17.1 15.1 10.2 64 3.7 WSW 11 19 6 10 1014.1 1013.7 0.0
26/11:00am 16.4 15.1 12.4 77 2.2 SW 11 15 6 8 1014.6 1014.2 0.0
26/10:30am 15.9 14.6 12.6 81 1.8 SW 11 15 6 8 1014.9 1014.5 0.0
26/10:00am 15.5 13.8 12.6 83 1.6 SW 13 17 7 9 1014.8 1014.4 0.0
26/09:30am 15.3 13.8 13.2 87 1.2 SW 13 17 7 9 1014.6 1014.2 0.0
26/09:00am 14.9 12.4 13.4 91 0.8 SSW 19 24 10 13 1014.2 1013.8 1.4
26/08:30am 14.6 12.1 14.1 97 0.3 SSW 20 26 11 14 1013.9 1013.5 1.4
26/08:00am 14.7 11.5 14.2 97 0.3 SW 24 30 13 16 1013.9 1013.5 1.4
26/07:30am 14.8 11.2 14.3 97 0.3 SW 26 32 14 17 1013.3 1012.9 1.4
26/07:19am 14.9 11.0 14.4 97 0.3 SW 28 32 15 17 1013.2 1012.8 1.4
26/07:03am 15.2 12.9 14.7 97 0.3 SW 20 26 11 14 1012.8 1012.4 1.4
26/07:00am 15.2 12.9 14.7 97 0.3 SW 20 26 11 14 1012.6 1012.3 1.4
26/06:30am 15.3 13.6 14.8 97 0.3 SW 17 20 9 11 1012.6 1012.3 1.4
26/06:00am 15.4 13.8 14.9 97 0.3 SW 17 20 9 11 1012.3 1012.0 1.4
26/05:30am 15.5 13.9 15.0 97 0.3 SW 17 20 9 11 1012.5 1012.2 1.0
26/05:00am 15.5 14.7 15.0 97 0.3 SW 13 15 7 8 1012.0 1011.7 1.0
26/04:30am 15.6 14.4 15.1 97 0.3 SW 15 17 8 9 1011.9 1011.6 1.0
26/04:00am 15.9 14.8 15.4 97 0.3 SW 15 19 8 10 1011.8 1011.5 1.0
26/03:30am 16.1 14.1 15.6 97 0.3 SW 20 26 11 14 1012.1 1011.8 1.0
26/03:00am 16.2 13.9 15.7 97 0.3 WSW 22 28 12 15 1012.6 1012.3 0.2
26/02:30am 16.2 14.1 15.2 94 0.6 SW 20 24 11 13 1011.9 1011.6 0.0
26/02:00am 16.5 14.5 15.4 93 0.6 SSW 20 24 11 13 1011.8 1011.5 0.0
26/01:30am 16.8 14.2 15.0 89 1.1 SW 22 28 12 15 1012.0 1011.7 0.0
26/01:00am 17.1 13.3 14.7 86 1.4 SW 28 33 15 18 1012.0 1011.7 0.0
26/12:30am 17.5 13.4 15.0 85 1.5 SW 30 37 16 20 1012.3 1012.0 0.0
26/12:00am 18.4 15.3 14.5 78 2.3 WSW 24 35 13 19 1012.6 1012.3 0.0
 
Date/Time
CST
Temp
°C
App
Temp
°C
Dew
Point
Rel
Hum
%
Delta-T
°C
Wind Press
QNH
hPa
Press
MSL
hPa
Rain
since 9 am
mm
Dir
 
Spd
km/h
Gust
km/h
Spd
kts
Gust
kts
25/11:30pm 18.6 16.2 13.9 74 2.7 SW 19 22 10 12 1011.9 1011.6 0.0
25/11:00pm 18.8 18.3 13.9 73 2.8 SSW 9 13 5 7 1011.6 1011.3 0.0
25/10:30pm 19.1 16.6 13.5 70 3.2 SW 19 24 10 13 1012.4 1012.1 0.0
25/10:00pm 19.7 16.1 13.2 66 3.7 SW 24 30 13 16 1012.2 1011.9 0.0
25/09:30pm 20.2 16.3 12.2 60 4.5 SSW 24 32 13 17 1011.6 1011.3 0.0
25/09:00pm 20.9 16.8 11.3 54 5.4 S 24 28 13 15 1011.2 1010.9 0.0
25/08:30pm 21.5 16.4 10.6 50 6.0 S 28 33 15 18 1010.7 1010.3 0.0
25/08:00pm 22.4 17.6 10.2 46 6.7 S 26 35 14 19 1010.7 1010.3 0.0
25/07:30pm 23.5 20.5 10.6 44 7.2 SSE 17 24 9 13 1009.8 1009.4 0.0
25/07:00pm 24.2 21.2 10.8 43 7.5 S 17 20 9 11 1009.5 1009.1 0.0
25/06:30pm 24.5 23.1 10.8 42 7.7 SSW 9 11 5 6 1009.0 1008.6 0.0
25/06:00pm 24.8 23.0 10.7 41 8.0 SW 11 13 6 7 1008.7 1008.3 0.0
25/05:30pm 26.0 24.2 11.0 39 8.6 SSW 11 13 6 7 1008.5 1008.1 0.0
25/05:00pm 26.7 24.1 10.8 37 9.1 SW 15 19 8 10 1008.2 1007.8 0.0
25/04:30pm 27.3 23.0 10.9 36 9.4 WSW 24 30 13 16 1008.2 1007.8 0.0
25/04:14pm 27.4 22.5 11.4 37 9.2 WSW 28 50 15 27 1007.7 1007.4 0.0
25/04:00pm 27.9 24.4 11.0 35 9.7 W 20 32 11 17 1008.1 1007.7 0.0
25/03:30pm 28.4 24.9 11.0 34 10.0 WSW 20 26 11 14 1007.8 1007.5 0.0
25/03:04pm 28.4 21.1 10.1 32 10.4 W 39 50 21 27 1007.5 1007.2 0.0
25/03:00pm 29.2 21.9 10.3 31 10.8 W 39 50 21 27 1007.7 1007.4 0.0
25/02:51pm 29.2 22.3 10.3 31 10.8 W 37 54 20 29 1007.7 1007.4 0.0
25/02:30pm 29.4 23.1 11.0 32 10.7 NW 35 56 19 30 1008.1 1007.7 0.0
25/02:28pm 29.6 23.8 10.7 31 10.9 NW 32 56 17 30 1007.9 1007.6 0.0
25/02:00pm 28.5 22.7 10.7 33 10.2 WNW 32 41 17 22 1008.6 1008.2 0.0
25/01:30pm 29.3 23.0 10.9 32 10.6 NW 35 46 19 25 1009.0 1008.6 0.0
25/01:00pm 28.4 22.2 10.1 32 10.4 NW 33 50 18 27 1009.5 1009.1 0.0
25/12:30pm 27.9 21.7 10.1 33 10.1 NW 33 46 18 25 1010.1 1009.7 0.0
25/12:00pm 27.4 22.1 9.7 33 9.9 NNW 28 35 15 19 1010.8 1010.4 0.0
25/11:30am 24.9 19.4 9.2 37 8.6 NNW 28 33 15 18 1011.4 1011.1 0.0
25/11:00am 23.1 17.0 8.4 39 7.9 NNW 30 41 16 22 1011.9 1011.6 0.0
25/10:30am 22.3 16.2 8.1 40 7.5 N 30 37 16 20 1012.3 1012.0 0.0
25/10:00am 21.6 15.3 7.4 40 7.4 N 30 37 16 20 1012.5 1012.2 0.0
25/09:30am 21.1 14.3 7.0 40 7.3 N 32 39 17 21 1012.8 1012.4 0.0
25/09:00am 20.6 14.1 6.5 40 7.2 N 30 35 16 19 1012.9 1012.5 0.0
25/08:30am 19.4 13.1 5.8 41 6.8 N 28 37 15 20 1012.8 1012.4 0.0
25/08:00am 18.2 12.3 5.8 44 6.1 N 26 32 14 17 1012.8 1012.4 0.0
25/07:30am 18.0 11.7 5.6 44 6.1 N 28 35 15 19 1013.0 1012.6 0.0
25/07:00am 18.1 11.3 5.3 43 6.3 N 30 35 16 19 1012.8 1012.4 0.0
25/06:30am 18.3 11.0 5.5 43 6.3 N 33 41 18 22 1012.9 1012.5 0.0
25/06:00am 17.8 11.5 5.7 45 6.0 N 28 35 15 19 1012.8 1012.4 0.0
25/05:30am 17.3 11.0 5.6 46 5.7 NNE 28 32 15 17 1012.6 1012.3 0.0
25/05:00am 17.3 11.0 5.6 46 5.7 NNE 28 35 15 19 1012.6 1012.3 0.0
25/04:30am 16.8 10.8 5.4 47 5.5 NNE 26 32 14 17 1012.9 1012.5 0.0
25/04:00am 16.8 10.4 5.1 46 5.7 NNE 28 32 15 17 1013.0 1012.6 0.0
25/03:30am 16.9 10.9 5.5 47 5.6 NNE 26 32 14 17 1013.3 1012.9 0.0
25/03:00am 17.2 10.5 5.5 46 5.7 NNE 30 33 16 18 1013.7 1013.3 0.0
25/02:30am 16.7 10.4 5.6 48 5.4 NNE 28 32 15 17 1013.9 1013.5 0.0
25/02:00am 16.6 9.6 5.9 49 5.2 NNE 32 41 17 22 1014.2 1013.8 0.0
25/01:30am 16.4 9.5 6.5 52 4.9 NNE 32 39 17 21 1014.4 1014.0 0.0
25/01:00am 17.3 11.2 2.9 38 6.7 NNE 24 32 13 17 1014.9 1014.5 0.0
25/12:30am 17.2 11.1 2.8 38 6.7 NNE 24 30 13 16 1015.0 1014.7 0.0
25/12:00am 16.9 10.3 2.1 37 6.7 NNE 26 30 14 16 1015.3 1015.0 0.0

Other Formats:

Comma delimited format used in spreadsheet applications
http://www.bom.gov.au/fwo/IDS60801/IDS60801.95458.axf

JavaScript Object Notation format (JSON) in row-major order
http://www.bom.gov.au/fwo/IDS60801/IDS60801.95458.json